Time;durP1;ratioP1;P1;durP2;ratioP2;P2;SDS_P1;SDS_P2;PMS_P1;PMS_P2;Temp;Humidity;BMP_temperature;BMP_pressure;BME280_temperature;BME280_humidity;BME280_pressure;Samples;Min_cycle;Max_cycle;Signal;HPM_P1;HPM_P2
2022/09/20 00:01:29;;;;;;;9.80;9.40;;;;;;;9.61;67.83;92882.44;5045634;28;20166;-74
2022/09/20 00:03:56;;;;;;;8.90;8.50;;;;;;;9.51;67.94;92878.03;5042849;28;20244;-75
2022/09/20 00:06:27;;;;;;;10.03;9.63;;;;;;;9.46;67.77;92878.03;5027465;28;20222;-75
2022/09/20 00:08:53;;;;;;;10.37;9.97;;;;;;;9.28;68.29;92870.00;5025497;28;20190;-75
2022/09/20 00:11:24;;;;;;;8.90;8.57;;;;;;;9.31;68.78;92877.28;5025651;28;20175;-75
2022/09/20 00:13:51;;;;;;;10.47;10.07;;;;;;;9.35;68.59;92886.16;5025433;28;20238;-75
2022/09/20 00:16:28;;;;;;;11.17;10.57;;;;;;;9.38;68.84;92885.63;5042509;28;20246;-75
2022/09/20 00:18:56;;;;;;;10.10;9.70;;;;;;;9.21;70.13;92890.34;5017485;28;20222;-75
2022/09/20 00:21:24;;;;;;;10.83;10.40;;;;;;;9.14;70.61;92892.41;5006971;28;20190;-72
2022/09/20 00:23:55;;;;;;;10.20;9.77;;;;;;;9.08;70.94;92886.44;5015725;28;20270;-76
2022/09/20 00:26:21;;;;;;;10.50;10.07;;;;;;;9.03;72.10;92883.06;5019723;28;20207;-76
2022/09/20 00:28:47;;;;;;;10.37;9.97;;;;;;;8.94;72.21;92867.19;5028111;28;20186;-76
2022/09/20 00:31:13;;;;;;;10.43;9.93;;;;;;;9.02;72.38;92884.09;5022783;28;20202;-76
2022/09/20 00:36:22;;;;;;;10.77;10.27;;;;;;;8.91;73.79;92869.53;5019858;28;20218;-76
2022/09/20 00:38:48;;;;;;;10.07;9.67;;;;;;;8.92;73.22;92878.91;5010542;28;20183;-76
2022/09/20 00:41:14;;;;;;;10.67;10.17;;;;;;;8.76;73.25;92865.13;5022449;28;20195;-75
2022/09/20 00:43:44;;;;;;;9.83;9.43;;;;;;;8.81;72.79;92882.56;5015727;28;20175;-75
2022/09/20 00:46:32;;;;;;;10.17;9.77;;;;;;;8.79;73.51;92879.44;5002898;28;20263;-76
2022/09/20 00:49:04;;;;;;;9.20;8.90;;;;;;;8.71;73.64;92862.50;5000934;28;20219;-76
2022/09/20 00:51:34;;;;;;;9.33;8.93;;;;;;;8.56;73.53;92853.94;5011785;28;20186;-76
2022/09/20 00:54:04;;;;;;;9.37;9.07;;;;;;;8.73;73.56;92863.00;5010691;28;20233;-76
2022/09/20 00:56:37;;;;;;;10.07;9.67;;;;;;;8.73;73.47;92864.84;5024745;28;20175;-77
2022/09/20 00:59:18;;;;;;;8.80;8.40;;;;;;;8.83;71.90;92870.84;5027998;28;20234;-76
2022/09/20 01:01:48;;;;;;;9.13;8.77;;;;;;;8.87;71.10;92884.13;5010712;28;20184;-76
2022/09/20 01:04:15;;;;;;;9.50;9.10;;;;;;;8.73;70.64;92870.81;5009798;28;20242;-76
2022/09/20 01:06:43;;;;;;;9.73;9.33;;;;;;;8.95;69.39;92884.34;5011441;28;20241;-76
2022/09/20 01:09:09;;;;;;;9.93;9.57;;;;;;;8.83;69.70;92881.25;5015953;28;20231;-76
2022/09/20 01:11:36;;;;;;;10.00;9.60;;;;;;;8.96;70.30;92882.56;5038337;28;20203;-76
2022/09/20 01:14:02;;;;;;;8.77;8.47;;;;;;;8.91;70.89;92879.94;5028719;28;20245;-76
2022/09/20 01:16:29;;;;;;;9.40;8.90;;;;;;;8.93;70.00;92883.88;5049838;28;20170;-76
2022/09/20 01:18:59;;;;;;;9.90;9.50;;;;;;;8.96;69.22;92877.34;5036873;28;20243;-76
2022/09/20 01:21:27;;;;;;;9.93;9.53;;;;;;;8.99;68.38;92879.41;5020363;28;20210;-77
2022/09/20 01:23:58;;;;;;;9.87;9.47;;;;;;;8.98;67.56;92883.06;5030829;28;20174;-76
2022/09/20 01:26:47;;;;;;;9.17;8.77;;;;;;;8.89;67.03;92863.78;5031335;28;20258;-77
2022/09/20 01:29:51;;;;;;;9.43;9.10;;;;;;;9.10;67.03;92878.38;5029124;28;20227;-77
2022/09/20 01:32:22;;;;;;;10.10;9.70;;;;;;;8.90;66.45;92860.94;5028076;28;20187;-76
2022/09/20 01:34:53;;;;;;;10.17;9.77;;;;;;;8.93;65.69;92877.88;5021131;28;20286;-76
2022/09/20 01:37:48;;;;;;;10.37;9.97;;;;;;;8.92;66.21;92874.47;5011619;28;20283;-76
2022/09/20 01:40:26;;;;;;;10.63;10.23;;;;;;;8.68;66.48;92852.63;5009951;28;20227;-76
2022/09/20 01:43:12;;;;;;;10.23;9.73;;;;;;;8.76;66.78;92874.75;5031857;28;20190;-76
2022/09/20 01:45:45;;;;;;;9.40;9.00;;;;;;;8.71;67.11;92872.94;5026659;28;20227;-75
2022/09/20 01:48:28;;;;;;;8.97;8.67;;;;;;;8.71;67.17;92878.13;5031160;28;20278;-77
2022/09/20 01:51:19;;;;;;;9.27;8.87;;;;;;;8.72;68.14;92884.88;5021545;28;20227;-76
2022/09/20 01:54:22;;;;;;;9.80;9.40;;;;;;;8.67;67.53;92884.13;5017140;28;20736;-76
2022/09/20 01:57:02;;;;;;;9.87;9.47;;;;;;;8.65;68.06;92878.38;5016119;28;20186;-76
2022/09/20 01:59:57;;;;;;;9.40;9.00;;;;;;;8.73;68.40;92870.81;5023880;28;20222;-76
2022/09/20 02:02:31;;;;;;;10.23;9.83;;;;;;;8.63;68.93;92867.44;5004474;28;20187;-76
2022/09/20 02:05:07;;;;;;;10.07;9.53;;;;;;;8.67;69.15;92861.47;5010732;28;20226;-76
2022/09/20 02:07:41;;;;;;;10.97;10.37;;;;;;;8.48;69.91;92863.03;5005296;28;20242;-76
2022/09/20 02:10:46;;;;;;;10.20;9.80;;;;;;;8.37;70.54;92839.84;5018124;28;20840;-76
2022/09/20 02:13:39;;;;;;;9.57;9.07;;;;;;;8.45;70.22;92837.50;5010916;28;20194;-76
2022/09/20 02:16:14;;;;;;;10.10;9.70;;;;;;;8.39;70.11;92835.19;5031805;28;20210;-76
2022/09/20 02:19:05;;;;;;;9.17;8.87;;;;;;;8.26;70.97;92838.28;5047792;28;20177;-76
2022/09/20 02:22:08;;;;;;;9.73;9.33;;;;;;;8.32;70.89;92840.63;5025961;28;20182;-76
2022/09/20 02:24:54;;;;;;;8.97;8.67;;;;;;;8.27;71.27;92839.84;5042256;28;20225;-76
2022/09/20 02:27:26;;;;;;;10.73;10.23;;;;;;;8.27;71.82;92837.22;5032711;28;20198;-76
2022/09/20 02:30:14;;;;;;;10.60;9.63;;;;;;;8.15;69.31;92817.41;5038930;28;20258;-81
2022/09/20 02:33:04;;;;;;;11.17;10.43;;;;;;;8.16;69.34;92834.59;5030086;28;20178;-77
2022/09/20 02:35:40;;;;;;;10.63;10.13;;;;;;;8.14;68.62;92836.66;5013957;28;20219;-76
2022/09/20 02:38:15;;;;;;;9.57;9.17;;;;;;;8.16;65.12;92839.81;5022023;28;20278;-76
2022/09/20 02:40:58;;;;;;;9.60;9.20;;;;;;;8.27;65.19;92832.03;5004423;28;21331;-76
2022/09/20 02:43:24;;;;;;;9.60;9.30;;;;;;;8.33;65.04;92831.03;5021292;28;20178;-76
2022/09/20 02:46:27;;;;;;;8.93;8.63;;;;;;;8.35;62.39;92832.31;5029332;28;20225;-76
2022/09/20 02:49:30;;;;;;;9.00;8.60;;;;;;;8.38;62.34;92841.41;4996407;28;20197;-76
2022/09/20 02:52:02;;;;;;;8.77;8.47;;;;;;;8.32;62.28;92837.25;5010329;28;20179;-76
2022/09/20 02:54:51;;;;;;;9.10;8.60;;;;;;;8.37;67.38;92840.66;5010044;28;20215;-76
2022/09/20 02:57:22;;;;;;;10.47;10.07;;;;;;;8.32;70.03;92858.06;5009298;28;20187;-76
2022/09/20 03:00:09;;;;;;;9.73;9.33;;;;;;;8.17;71.57;92845.78;5013183;28;20219;-76
2022/09/20 03:02:50;;;;;;;10.47;10.07;;;;;;;8.14;72.96;92862.66;5016935;28;20992;-76
2022/09/20 03:05:35;;;;;;;9.03;8.63;;;;;;;8.03;73.77;92860.31;5001135;28;20230;-76
2022/09/20 03:08:03;;;;;;;10.10;9.70;;;;;;;8.09;72.50;92860.06;5018956;28;20199;-76
2022/09/20 03:10:38;;;;;;;9.80;9.40;;;;;;;8.11;70.27;92859.78;5018181;28;20302;-76
2022/09/20 03:13:49;;;;;;;9.27;8.87;;;;;;;8.22;69.98;92863.22;5006327;28;20248;-76
2022/09/20 03:16:30;;;;;;;9.43;9.03;;;;;;;7.99;69.39;92848.84;5032393;28;20212;-76
2022/09/20 03:19:17;;;;;;;9.77;9.37;;;;;;;8.17;69.94;92864.75;5046870;28;20239;-77
2022/09/20 03:21:55;;;;;;;9.20;8.80;;;;;;;8.25;69.54;92865.34;5019051;28;20183;-76
2022/09/20 03:24:28;;;;;;;10.53;10.13;;;;;;;8.17;69.98;92872.56;5044645;28;20226;-77
2022/09/20 03:27:23;;;;;;;9.03;8.73;;;;;;;8.11;70.30;92878.00;5036317;28;20261;-76
2022/09/20 03:30:26;;;;;;;10.13;9.73;;;;;;;8.16;70.74;92881.41;5038943;28;20218;-76
2022/09/20 03:33:00;;;;;;;9.93;9.53;;;;;;;8.04;70.65;92882.69;5040439;28;20206;-76
2022/09/20 03:35:41;;;;;;;9.63;9.23;;;;;;;8.29;68.26;92894.97;5037698;28;20209;-76
2022/09/20 03:38:31;;;;;;;10.13;9.73;;;;;;;8.35;67.41;92888.75;5029356;28;20178;-76
2022/09/20 03:41:12;;;;;;;9.03;8.70;;;;;;;8.33;67.54;92888.25;5018886;28;20223;-76
2022/09/20 03:43:48;;;;;;;9.53;9.13;;;;;;;8.38;67.42;92896.03;5017415;28;20178;-75
2022/09/20 03:46:20;;;;;;;10.07;9.67;;;;;;;8.30;67.35;92891.34;5027573;28;20309;-76
2022/09/20 03:49:07;;;;;;;9.40;9.10;;;;;;;8.27;68.47;92904.84;5030824;28;20209;-76
2022/09/20 03:52:13;;;;;;;9.10;8.80;;;;;;;8.28;67.92;92889.00;5027915;28;20195;-77
2022/09/20 03:54:47;;;;;;;10.13;9.73;;;;;;;8.36;68.00;92885.13;5029024;28;20226;-75
2022/09/20 03:57:58;;;;;;;9.97;9.57;;;;;;;8.35;67.58;92886.16;5024968;28;20236;-70
2022/09/20 04:00:38;;;;;;;9.30;9.00;;;;;;;8.36;68.38;92885.13;5025268;28;20231;-71
2022/09/20 04:03:09;;;;;;;9.27;8.93;;;;;;;8.34;69.68;92884.59;5025496;28;20199;-69
2022/09/20 04:05:46;;;;;;;8.13;7.80;;;;;;;8.31;69.81;92892.91;5025406;28;20222;-71
2022/09/20 04:08:34;;;;;;;9.60;9.20;;;;;;;8.26;69.14;92895.50;5050970;28;20201;-71
2022/09/20 04:11:16;;;;;;;14.27;13.70;;;;;;;8.24;68.69;92894.97;5022131;28;20208;-71
2022/09/20 04:13:55;;;;;;;9.70;9.13;;;;;;;8.23;68.49;92894.19;5022887;28;20191;-70
2022/09/20 04:16:44;;;;;;;10.73;10.33;;;;;;;8.32;68.82;92905.66;5031779;28;20252;-70
2022/09/20 04:19:20;;;;;;;8.93;8.37;;;;;;;8.28;69.02;92911.63;5029982;28;20234;-70
2022/09/20 04:21:57;;;;;;;9.50;9.20;;;;;;;8.31;69.03;92913.72;5040546;28;20188;-69
2022/09/20 04:24:32;;;;;;;9.43;9.13;;;;;;;8.28;69.35;92914.25;5028833;28;20293;-69
2022/09/20 04:27:22;;;;;;;9.63;9.23;;;;;;;8.29;70.27;92921.00;5031662;28;20222;-71
2022/09/20 04:29:56;;;;;;;9.27;8.97;;;;;;;8.30;71.58;92912.94;5013785;28;20258;-70
2022/09/20 04:32:21;;;;;;;10.30;9.80;;;;;;;8.20;71.83;92918.84;5006540;28;20216;-69
2022/09/20 04:37:57;;;;;;;9.10;8.27;;;;;;;8.10;72.36;92924.03;5026246;28;20267;-69
2022/09/20 04:40:46;;;;;;;10.30;9.27;;;;;;;8.02;72.11;92889.94;5030183;28;20226;-73
2022/09/20 04:43:56;;;;;;;9.87;9.47;;;;;;;8.90;73.55;92933.81;5027585;28;20189;-74
2022/09/20 04:46:41;;;;;;;10.17;9.77;;;;;;;8.47;70.99;92934.31;5019422;28;20227;-75
2022/09/20 04:49:06;;;;;;;9.70;9.30;;;;;;;8.38;70.83;92940.25;5015360;28;20232;-74
2022/09/20 04:51:35;;;;;;;10.07;9.37;;;;;;;8.36;71.51;92935.31;5018646;28;20191;-74
2022/09/20 04:54:19;;;;;;;9.00;8.70;;;;;;;8.39;71.26;92926.22;5019761;28;20238;-74
2022/09/20 04:57:04;;;;;;;10.70;9.77;;;;;;;8.48;72.77;92935.88;4997804;28;20247;-74
2022/09/20 04:59:54;;;;;;;9.63;9.27;;;;;;;8.42;71.95;92946.53;5008903;28;20250;-74
2022/09/20 05:02:19;;;;;;;9.53;9.17;;;;;;;8.42;71.33;92941.31;5008108;28;20195;-75
2022/09/20 05:05:08;;;;;;;9.77;9.37;;;;;;;8.47;71.04;92943.94;5009853;28;20283;-75
2022/09/20 05:08:09;;;;;;;9.17;8.87;;;;;;;8.57;71.48;92931.72;5008942;28;20231;-75
2022/09/20 05:11:00;;;;;;;10.23;9.83;;;;;;;8.57;71.52;92938.75;5010338;28;20235;-75
2022/09/20 05:13:40;;;;;;;9.20;8.90;;;;;;;8.60;70.60;92939.00;5007483;28;20198;-75
2022/09/20 05:16:20;;;;;;;8.97;8.67;;;;;;;8.64;70.18;92931.47;5032086;28;20210;-75
2022/09/20 05:19:27;;;;;;;10.10;9.70;;;;;;;8.62;70.62;92941.34;5037703;28;20187;-74
2022/09/20 05:22:16;;;;;;;9.43;9.03;;;;;;;8.66;70.72;92948.38;5020638;28;20206;-74
2022/09/20 05:25:12;;;;;;;9.37;9.07;;;;;;;8.73;71.28;92948.91;5027099;28;20218;-74
2022/09/20 05:28:05;;;;;;;9.90;9.50;;;;;;;8.73;70.45;92946.31;5046505;28;20206;-74
2022/09/20 05:30:50;;;;;;;9.27;8.97;;;;;;;8.75;70.38;92946.03;5029477;28;20231;-74
2022/09/20 05:33:25;;;;;;;9.23;8.93;;;;;;;8.73;70.41;92948.91;5024170;28;20187;-74
2022/09/20 05:36:35;;;;;;;9.70;9.30;;;;;;;8.83;70.74;92948.13;5043384;28;21064;-75
2022/09/20 05:39:15;;;;;;;9.30;8.80;;;;;;;8.93;70.97;92955.97;5029344;28;20230;-75
2022/09/20 05:41:55;;;;;;;10.17;9.47;;;;;;;8.93;70.53;92964.56;5040151;28;20194;-74
2022/09/20 05:44:56;;;;;;;9.97;9.57;;;;;;;9.05;70.43;92943.47;5037860;28;20220;-74
2022/09/20 05:47:33;;;;;;;10.00;9.33;;;;;;;8.99;69.62;92952.34;5026787;28;20221;-75
2022/09/20 05:50:20;;;;;;;9.87;9.40;;;;;;;9.06;69.86;92964.03;5043421;28;20218;-74
2022/09/20 05:52:57;;;;;;;10.60;10.20;;;;;;;9.04;70.15;92952.34;5036552;28;20202;-74
2022/09/20 05:55:28;;;;;;;8.83;8.50;;;;;;;9.09;69.97;92960.16;5016670;28;20215;-74
2022/09/20 05:58:22;;;;;;;9.07;8.77;;;;;;;9.12;69.48;92951.81;5022466;28;20219;-74
2022/09/20 06:00:56;;;;;;;9.70;9.30;;;;;;;9.21;70.11;92953.63;5014021;28;20245;-74
2022/09/20 06:03:39;;;;;;;9.90;9.50;;;;;;;9.32;69.01;92951.81;5008055;28;20266;-74
2022/09/20 06:06:30;;;;;;;9.53;9.23;;;;;;;8.97;68.89;92884.09;5017351;28;20247;-74
2022/09/20 06:09:01;;;;;;;10.03;9.63;;;;;;;9.30;68.62;92959.88;5020824;28;20277;-75
2022/09/20 06:12:11;;;;;;;8.57;8.27;;;;;;;9.21;68.80;92935.38;5027897;28;20178;-75
2022/09/20 06:15:02;;;;;;;9.57;9.27;;;;;;;9.41;67.52;92955.44;5029718;28;20310;-74
2022/09/20 06:17:37;;;;;;;9.77;9.37;;;;;;;9.41;67.90;92943.22;5032958;28;20195;-74
2022/09/20 06:20:25;;;;;;;10.00;9.60;;;;;;;9.61;66.79;92956.19;5036099;28;20273;-74
2022/09/20 06:22:55;;;;;;;8.10;7.50;;;;;;;9.76;65.67;92942.34;5034810;28;20186;-74
2022/09/20 06:25:52;;;;;;;9.73;9.37;;;;;;;9.73;66.85;92950.69;5034929;28;20226;-75
2022/09/20 06:28:26;;;;;;;8.60;8.30;;;;;;;10.01;67.68;92957.91;5029152;28;20233;-75
2022/09/20 06:30:53;;;;;;;9.53;9.13;;;;;;;9.96;65.59;92964.97;5040856;28;20248;-74
2022/09/20 06:33:21;;;;;;;8.67;8.07;;;;;;;9.95;66.94;92953.75;5043078;28;20277;-74
2022/09/20 06:41:25;;;;;;;8.67;8.37;;;;;;;9.98;65.60;92961.06;5028888;28;20223;-75
2022/09/20 06:41:36;;;;;;;8.23;7.93;;;;;;;10.09;65.69;92952.19;5021993;28;20212;-75
2022/09/20 06:44:02;;;;;;;9.47;9.17;;;;;;;10.42;65.73;92961.97;5033855;28;20235;-75
2022/09/20 06:46:33;;;;;;;9.27;8.87;;;;;;;10.36;65.93;92957.81;5017521;28;20198;-74
2022/09/20 06:48:59;;;;;;;8.77;8.47;;;;;;;10.46;66.57;92964.81;5035442;28;20261;-74
2022/09/20 06:51:32;;;;;;;9.10;8.53;;;;;;;10.44;66.46;92961.69;5031835;28;20183;-74
2022/09/20 06:53:58;;;;;;;8.77;8.47;;;;;;;10.58;67.42;92976.50;5035650;28;20218;-75
2022/09/20 06:56:26;;;;;;;9.23;8.83;;;;;;;10.42;66.22;92966.38;5025035;28;20186;-75
2022/09/20 06:58:53;;;;;;;8.70;8.40;;;;;;;10.62;66.19;92966.28;5029647;28;20201;-74
2022/09/20 07:01:19;;;;;;;9.30;8.90;;;;;;;10.57;65.71;92969.72;5034884;28;20185;-74
2022/09/20 07:03:45;;;;;;;9.40;9.00;;;;;;;10.80;65.25;92974.28;5041615;28;20220;-75
2022/09/20 07:06:11;;;;;;;9.03;8.63;;;;;;;10.79;65.11;92970.09;5026959;28;20231;-75
2022/09/20 07:08:37;;;;;;;8.37;8.07;;;;;;;10.82;64.61;92974.78;5023106;28;20198;-74
2022/09/20 07:11:07;;;;;;;9.57;8.70;;;;;;;10.86;63.55;92978.41;5023926;28;20179;-75
2022/09/20 07:13:33;;;;;;;8.07;7.57;;;;;;;10.90;64.74;92973.44;5025729;28;20186;-74
2022/09/20 07:16:03;;;;;;;8.87;8.57;;;;;;;11.19;64.89;92979.53;5011351;28;20283;-74
2022/09/20 07:18:30;;;;;;;8.37;8.07;;;;;;;11.16;63.34;92978.22;5006597;28;20186;-75
2022/09/20 07:20:57;;;;;;;8.23;7.93;;;;;;;11.00;63.41;92963.69;5023843;28;20230;-75
2022/09/20 07:23:24;;;;;;;9.43;9.07;;;;;;;11.09;63.54;92976.97;5012121;28;20173;-72
2022/09/20 07:25:50;;;;;;;9.13;8.83;;;;;;;11.22;62.61;92987.56;5036673;28;20765;-72
2022/09/20 07:28:19;;;;;;;9.23;8.83;;;;;;;11.11;63.25;92974.88;5029205;28;20259;-71
2022/09/20 07:30:44;;;;;;;8.97;8.57;;;;;;;11.27;63.39;92955.41;5033710;28;20215;-71
2022/09/20 07:33:10;;;;;;;9.63;9.13;;;;;;;11.53;63.78;92971.66;5025673;28;20195;-71
2022/09/20 07:35:36;;;;;;;9.30;8.80;;;;;;;11.55;62.50;92974.78;5031189;28;20253;-72
2022/09/20 07:38:02;;;;;;;8.50;8.20;;;;;;;11.74;60.85;92973.06;5031466;28;20198;-72
2022/09/20 07:40:27;;;;;;;8.37;8.07;;;;;;;11.63;61.48;92977.59;5030248;28;20238;-71
2022/09/20 07:42:55;;;;;;;9.47;9.13;;;;;;;11.64;62.82;92973.16;5032789;28;20183;-71
2022/09/20 07:45:21;;;;;;;9.37;9.00;;;;;;;11.55;62.54;92930.34;5028867;28;20745;-71
2022/09/20 07:47:46;;;;;;;9.00;8.70;;;;;;;11.73;59.16;92969.69;5032296;28;20218;-71
2022/09/20 07:50:11;;;;;;;9.17;8.87;;;;;;;11.38;60.22;92972.56;5031936;28;20225;-74
2022/09/20 07:52:37;;;;;;;9.67;9.23;;;;;;;11.52;60.62;92957.78;5031507;28;20191;-71
2022/09/20 07:55:02;;;;;;;9.30;9.00;;;;;;;11.75;60.61;92959.69;5013035;28;20226;-71
2022/09/20 07:57:28;;;;;;;9.93;9.33;;;;;;;11.88;61.05;92969.53;5002284;28;20216;-73
2022/09/20 07:59:53;;;;;;;8.83;8.40;;;;;;;12.13;61.20;92950.94;5021541;28;20307;-72
2022/09/20 08:02:18;;;;;;;9.13;8.63;;;;;;;12.31;59.37;92962.53;5025762;28;20195;-73
2022/09/20 08:04:44;;;;;;;9.10;8.80;;;;;;;12.27;59.06;92966.75;5027398;28;20279;-73
2022/09/20 08:07:11;;;;;;;9.13;8.73;;;;;;;12.45;58.61;92977.25;5031772;28;20244;-73
2022/09/20 08:09:36;;;;;;;8.57;8.27;;;;;;;12.32;59.08;92958.84;5025166;28;20234;-73
2022/09/20 08:12:02;;;;;;;8.90;8.60;;;;;;;12.33;59.40;92970.84;5011973;28;20208;-72
2022/09/20 08:14:27;;;;;;;8.03;7.73;;;;;;;12.39;60.08;92965.28;5006438;28;20247;-74
2022/09/20 08:16:55;;;;;;;8.37;8.07;;;;;;;12.40;57.88;92971.31;5021596;28;20186;-72
2022/09/20 08:19:22;;;;;;;8.83;8.53;;;;;;;12.45;59.50;92974.63;5016093;28;21134;-73
2022/09/20 08:21:48;;;;;;;8.10;7.80;;;;;;;12.39;54.76;92975.75;5025658;28;20191;-72
2022/09/20 08:24:15;;;;;;;7.93;7.70;;;;;;;12.57;53.36;92982.09;5015819;28;20278;-73
2022/09/20 08:26:41;;;;;;;8.27;8.00;;;;;;;12.93;54.94;92978.72;5009784;28;20211;-72
2022/09/20 08:29:06;;;;;;;8.70;8.40;;;;;;;12.55;56.66;92964.03;5007494;28;20302;-72
2022/09/20 08:31:35;;;;;;;8.57;8.27;;;;;;;12.54;54.20;92961.72;5015684;28;20183;-71
2022/09/20 08:34:02;;;;;;;7.87;7.57;;;;;;;12.65;53.70;92974.38;5024276;28;20249;-73
2022/09/20 08:36:29;;;;;;;8.47;8.17;;;;;;;12.77;52.03;92966.13;5028634;28;20191;-73
2022/09/20 08:38:54;;;;;;;8.07;7.57;;;;;;;12.62;53.99;92963.72;5029788;28;20179;-72
2022/09/20 08:41:41;;;;;;;8.47;8.17;;;;;;;12.61;53.83;92956.88;5023550;28;20275;-72
2022/09/20 08:44:25;;;;;;;9.40;9.03;;;;;;;12.45;57.16;92964.16;5025114;28;20269;-72
2022/09/20 08:47:02;;;;;;;8.20;7.90;;;;;;;12.55;57.06;92960.63;5026919;28;20303;-72
2022/09/20 08:49:29;;;;;;;9.13;8.83;;;;;;;12.37;58.11;92948.31;5027244;28;20221;-74
2022/09/20 08:51:57;;;;;;;8.47;8.17;;;;;;;12.34;56.53;92930.53;5027312;28;20191;-73
2022/09/20 08:54:24;;;;;;;10.27;9.77;;;;;;;12.77;56.37;92951.19;5020702;28;20225;-74
2022/09/20 08:56:50;;;;;;;8.33;8.03;;;;;;;12.89;56.74;92951.53;5015938;28;20183;-74
2022/09/20 08:59:18;;;;;;;8.73;8.07;;;;;;;12.97;54.20;92931.75;5021007;28;20242;-75
2022/09/20 09:01:45;;;;;;;7.53;7.33;;;;;;;12.87;53.33;92950.28;5021262;28;20194;-75
2022/09/20 09:04:20;;;;;;;8.30;8.00;;;;;;;12.99;53.41;92937.50;5009886;28;20219;-73
2022/09/20 09:06:46;;;;;;;8.97;8.67;;;;;;;12.77;55.74;92945.94;5017852;28;20237;-74
2022/09/20 09:09:28;;;;;;;7.23;7.03;;;;;;;13.07;54.61;92929.03;5011078;28;20236;-71
2022/09/20 09:11:55;;;;;;;8.80;8.50;;;;;;;13.12;54.91;92942.03;5008921;28;20231;-73
2022/09/20 09:14:48;;;;;;;8.27;7.97;;;;;;;13.00;55.40;92923.34;5015028;28;20251;-72
2022/09/20 09:17:19;;;;;;;8.73;8.43;;;;;;;13.17;53.89;92928.88;5005286;28;20181;-73
2022/09/20 09:19:50;;;;;;;8.33;8.03;;;;;;;12.98;55.39;92922.06;5001252;28;20266;-73
2022/09/20 09:22:23;;;;;;;9.00;8.00;;;;;;;13.10;53.93;92917.19;5010913;28;20566;-73
2022/09/20 09:25:09;;;;;;;8.87;8.57;;;;;;;13.03;54.50;92917.53;5003811;28;20231;-73
2022/09/20 09:27:52;;;;;;;8.67;8.37;;;;;;;13.08;55.13;92911.44;5010257;28;20235;-73
2022/09/20 09:30:22;;;;;;;8.47;8.17;;;;;;;13.08;54.44;92914.84;5006161;28;20257;-73
2022/09/20 09:32:48;;;;;;;8.50;8.20;;;;;;;13.19;55.49;92911.00;5015020;28;21686;-74
2022/09/20 09:35:29;;;;;;;8.37;8.07;;;;;;;13.32;55.16;92926.03;5005738;28;20232;-73
2022/09/20 09:37:58;;;;;;;8.30;8.00;;;;;;;13.43;54.59;92908.28;5001232;28;20190;-74
2022/09/20 09:40:25;;;;;;;8.47;8.17;;;;;;;13.59;52.65;92918.19;5012080;28;20231;-74
2022/09/20 09:42:53;;;;;;;8.50;8.20;;;;;;;14.16;51.70;92912.41;5008887;28;20741;-74
2022/09/20 09:45:26;;;;;;;8.80;8.30;;;;;;;14.08;53.77;92907.88;5021924;28;20230;-75
2022/09/20 09:47:53;;;;;;;7.67;7.37;;;;;;;13.89;51.14;92917.66;5024385;28;20224;-76
2022/09/20 09:50:26;;;;;;;8.07;7.77;;;;;;;13.74;51.23;92870.69;5031457;28;20330;-75
2022/09/20 09:53:20;;;;;;;8.40;8.10;;;;;;;13.55;52.41;92919.84;5027432;28;20191;-75
2022/09/20 09:55:47;;;;;;;8.10;7.80;;;;;;;14.15;52.28;92924.00;5025949;28;20218;-75
2022/09/20 09:58:42;;;;;;;8.10;7.80;;;;;;;14.05;49.85;92908.44;5021696;28;20215;-75
2022/09/20 10:01:18;;;;;;;7.90;7.63;;;;;;;14.11;49.80;92904.66;5005252;28;20794;-76
2022/09/20 10:04:15;;;;;;;8.27;7.97;;;;;;;14.40;48.07;92922.75;5006747;28;20205;-74
2022/09/20 10:07:02;;;;;;;9.07;8.70;;;;;;;14.66;48.92;92920.38;5012508;28;20246;-73
2022/09/20 10:09:38;;;;;;;8.53;8.23;;;;;;;14.76;48.61;92912.25;5007962;28;20245;-74
2022/09/20 10:12:39;;;;;;;7.93;7.63;;;;;;;15.02;47.29;92893.00;5012059;28;20559;-75
2022/09/20 10:15:28;;;;;;;8.40;8.10;;;;;;;15.14;46.35;92930.09;5006570;28;20235;-74
2022/09/20 10:17:54;;;;;;;7.83;7.53;;;;;;;15.08;46.59;92919.97;5004202;28;20231;-74
2022/09/20 10:20:34;;;;;;;8.30;8.00;;;;;;;15.43;45.32;92922.56;5009300;28;20223;-74
2022/09/20 10:23:22;;;;;;;7.17;6.97;;;;;;;15.37;45.27;92922.97;5031467;28;20213;-75
2022/09/20 10:25:56;;;;;;;8.03;7.73;;;;;;;15.15;44.56;92915.84;5026661;28;20234;-75
2022/09/20 10:28:47;;;;;;;7.43;7.17;;;;;;;15.07;45.32;92918.41;5025426;28;20225;-75
2022/09/20 10:31:50;;;;;;;8.00;7.70;;;;;;;14.66;47.89;92913.28;5005609;28;20211;-75
2022/09/20 10:34:27;;;;;;;7.33;7.13;;;;;;;14.87;47.96;92916.22;5009270;28;20234;-75
2022/09/20 10:36:57;;;;;;;8.50;8.20;;;;;;;14.54;48.53;92912.22;5002179;28;20206;-75
2022/09/20 10:39:33;;;;;;;8.10;7.80;;;;;;;14.25;47.76;92913.34;5004184;28;20243;-74
2022/09/20 10:45:18;;;;;;;7.97;7.67;;;;;;;14.24;48.35;92905.75;5009995;28;20285;-74
2022/09/20 10:48:11;;;;;;;8.43;8.03;;;;;;;14.21;48.74;92895.81;5004577;28;20222;-75
2022/09/20 10:50:45;;;;;;;8.10;7.80;;;;;;;14.02;48.13;92909.00;4998069;28;20239;-74
2022/09/20 10:53:16;;;;;;;8.03;7.70;;;;;;;14.30;48.33;92907.19;4993858;28;20187;-74
2022/09/20 10:56:00;;;;;;;8.60;8.17;;;;;;;14.51;48.24;92910.97;4997629;28;20218;-75
2022/09/20 10:58:37;;;;;;;8.33;8.03;;;;;;;14.34;47.66;92910.78;5008838;28;20214;-74
2022/09/20 11:01:17;;;;;;;7.10;6.90;;;;;;;14.45;47.23;92904.25;5019798;28;20215;-73
2022/09/20 11:03:54;;;;;;;8.73;8.43;;;;;;;14.51;48.39;92916.22;5020753;28;20210;-73
2022/09/20 11:06:42;;;;;;;8.57;8.13;;;;;;;14.56;48.36;92904.81;5026438;28;20236;-74
2022/09/20 11:09:12;;;;;;;8.37;7.97;;;;;;;14.45;46.26;92897.16;5025904;28;20235;-74
2022/09/20 11:11:43;;;;;;;8.83;8.43;;;;;;;14.72;47.01;92900.81;5030051;28;20178;-75
2022/09/20 11:14:15;;;;;;;8.37;8.07;;;;;;;14.57;46.22;92880.13;5018515;28;20295;-75
2022/09/20 11:16:40;;;;;;;9.63;8.60;;;;;;;14.56;47.80;92899.56;5018952;28;20262;-74
2022/09/20 11:19:26;;;;;;;8.23;7.73;;;;;;;14.11;47.93;92888.13;5015766;28;20238;-74
2022/09/20 11:21:58;;;;;;;8.40;8.10;;;;;;;14.16;46.90;92883.53;5016592;28;21093;-74
2022/09/20 11:24:33;;;;;;;9.07;8.67;;;;;;;13.96;46.97;92897.06;5008838;28;20224;-73
2022/09/20 11:27:11;;;;;;;8.53;8.23;;;;;;;13.90;47.20;92884.34;4993989;28;20203;-74
2022/09/20 11:29:46;;;;;;;8.97;8.67;;;;;;;14.09;45.30;92893.66;5005206;28;20230;-75
2022/09/20 11:32:19;;;;;;;9.57;9.17;;;;;;;13.98;46.29;92881.78;5000320;28;20262;-72
2022/09/20 11:34:55;;;;;;;8.67;8.37;;;;;;;14.21;46.79;92880.81;4994739;28;20227;-74
2022/09/20 11:37:27;;;;;;;8.57;8.27;;;;;;;14.43;46.36;92891.41;5011790;28;20190;-74
2022/09/20 11:39:53;;;;;;;9.97;9.40;;;;;;;14.20;46.02;92884.50;5000005;28;20224;-74
2022/09/20 11:42:25;;;;;;;8.27;7.97;;;;;;;14.07;45.66;92884.53;5006659;28;20185;-73
2022/09/20 11:44:50;;;;;;;8.97;8.57;;;;;;;13.86;46.17;92878.88;5002039;28;20243;-73
2022/09/20 11:47:36;;;;;;;8.47;8.17;;;;;;;14.00;46.71;92884.91;5007458;28;20291;-72
2022/09/20 11:50:33;;;;;;;8.33;8.03;;;;;;;14.06;46.98;92883.75;4998349;28;20230;-74
2022/09/20 11:53:14;;;;;;;8.40;8.10;;;;;;;14.21;47.99;92874.78;5028708;28;20195;-74
2022/09/20 11:56:04;;;;;;;8.37;8.07;;;;;;;14.04;48.17;92858.84;5021226;28;20218;-73
2022/09/20 11:58:30;;;;;;;8.27;7.87;;;;;;;14.15;48.48;92874.09;5027036;28;20209;-74
2022/09/20 12:00:58;;;;;;;7.53;7.23;;;;;;;14.23;47.44;92867.38;5025934;28;20222;-74
2022/09/20 12:03:32;;;;;;;7.90;7.60;;;;;;;14.20;46.55;92879.25;5028781;28;20246;-74
2022/09/20 12:06:04;;;;;;;8.47;8.17;;;;;;;14.14;46.84;92879.66;5030787;28;20280;-74
2022/09/20 12:08:35;;;;;;;8.70;8.40;;;;;;;14.13;46.76;92870.97;5041549;28;20194;-74
2022/09/20 12:11:09;;;;;;;7.27;7.07;;;;;;;14.10;46.62;92871.56;5032850;28;20223;-74
2022/09/20 12:13:38;;;;;;;9.13;8.80;;;;;;;14.27;46.65;92874.41;5034460;28;20199;-73
2022/09/20 12:16:34;;;;;;;7.87;7.57;;;;;;;14.28;45.71;92862.84;5029114;28;20658;-74
2022/09/20 12:19:03;;;;;;;8.83;8.43;;;;;;;14.31;45.75;92864.88;5025547;28;20231;-74
2022/09/20 12:21:28;;;;;;;8.43;8.13;;;;;;;14.48;45.19;92869.50;5037031;28;20179;-74
2022/09/20 12:23:57;;;;;;;8.03;7.73;;;;;;;14.60;44.98;92871.63;5026801;28;20203;-74
2022/09/20 12:26:24;;;;;;;7.07;6.87;;;;;;;14.41;44.05;92862.03;5033508;28;20229;-73
2022/09/20 12:28:58;;;;;;;8.17;7.87;;;;;;;14.36;44.17;92840.34;5025691;28;20258;-74
2022/09/20 12:31:24;;;;;;;8.30;8.00;;;;;;;14.69;44.46;92859.34;5021944;28;20197;-73
2022/09/20 12:34:01;;;;;;;8.40;8.07;;;;;;;14.63;44.46;92861.28;5036999;28;20211;-75